Aérodrome :
LOGIN :

S'inscrire | Disclaimer

   EN    FR    IT 

 










Légende :    VFR   VFR Marginal   IFR   IFR Intensif   IFR Très Intensif
Visi : 
Plafond : 
>= 8 km
>= 3000ft
5 à 8 km
1000 à 3000 ft
1500m à 5 km
500 à 1000 ft
800 à 1500m
200 à 500 ft
< 800m
< 200 ft
Symboles :   Orages  Brouillard  Fortes neiges  Fortes précipitations  Vent > 20 kt
SIGMETs :   Divers  Orages  Givrage  Turbulence  Onde Orograph.  Cendres Volcan.







- Altitude de l'aérodrome : 245 ft


ETHS - Fassberg

DERNIER METAR :
  • 192220Z 26005KT 9999 BKN060 11/09 Q1018 BLU

METARs EXPIRÉS :
  • 192120Z 27004KT 9999 BKN075 SCT180 11/09 Q1018 BLU
  • 192020Z 27004KT 9999 BKN070 12/09 Q1018 BLU
  • 191920Z 29004KT 9999 FEW060 BKN075 12/09 Q1018 BLU

TAF AMD TAF ETHS
Valide du 19 à 14h jusqu'au 19 à 23h UTC


191439Z 1914/1923 27007KT 9999 NSW SCT030 BKN250 CANCEL 1500
Pas de NOTAMs connus pour ce terrain.



MET'MAP, la Météo Aéronautique d'un coup d'oeil ! - Copyright ORBIFLY Décembre 2007 - Disclaimer

ORBIFLY MET'MAP TEAM :

Programmation & Développement : Alexandra Zaïnal
Conception & Développement : Baudouin d'Aumeries
Co-Programmation & Développement : Marc-Olivier Méhu
Soutien technique & logistique : Manuel Goepfert

Contact : metmap@orbifly.com




SOURCES & CREDITS :

   NOAA